createdAt,value
2023-05-05T00:18:19.429Z,19.8
2023-05-05T00:48:19.431Z,19.8
2023-05-05T01:18:19.424Z,19.7
2023-05-05T01:48:19.424Z,19.7
2023-05-05T02:18:19.393Z,19.6
2023-05-05T02:48:19.435Z,19.6
2023-05-05T03:18:19.390Z,19.6
2023-05-05T03:48:19.406Z,19.6
2023-05-05T04:18:19.384Z,19.6
2023-05-05T04:48:19.414Z,19.6
2023-05-05T05:18:19.429Z,19.7
2023-05-05T05:48:19.425Z,19.8
2023-05-05T06:18:19.099Z,19.8
2023-05-05T06:48:19.414Z,19.9
2023-05-05T07:18:19.605Z,20.0
2023-05-05T07:48:19.403Z,20.0
2023-05-05T08:18:19.394Z,20.1
2023-05-05T08:48:19.376Z,20.1
2023-05-05T09:18:19.387Z,20.2
2023-05-05T09:48:19.411Z,20.3
2023-05-05T10:18:19.452Z,20.3
2023-05-05T10:48:19.402Z,20.3
2023-05-05T11:18:19.392Z,20.3
2023-05-05T11:48:19.388Z,20.3
2023-05-05T12:18:19.449Z,20.3
2023-05-05T12:48:19.356Z,20.4
2023-05-05T13:18:19.391Z,20.4
2023-05-05T13:48:19.354Z,20.5
2023-05-05T14:18:19.356Z,20.5
2023-05-05T14:48:19.378Z,20.5
2023-05-05T15:18:19.371Z,20.6
2023-05-05T15:48:19.363Z,20.6
2023-05-05T16:18:19.368Z,20.6
2023-05-05T16:48:19.372Z,20.6
2023-05-05T17:18:19.081Z,20.6
2023-05-05T17:48:19.372Z,20.7
2023-05-05T18:18:19.346Z,20.7
2023-05-05T18:48:19.376Z,20.7
2023-05-05T19:18:19.230Z,20.7
2023-05-05T19:48:19.524Z,20.7
2023-05-05T20:18:19.402Z,20.7
2023-05-05T20:48:19.339Z,20.7
2023-05-05T21:18:19.531Z,20.8
2023-05-05T21:48:19.464Z,20.8
2023-05-05T22:18:19.345Z,20.8
2023-05-05T22:48:19.345Z,20.8
2023-05-05T23:18:19.221Z,20.8
2023-05-05T23:48:19.344Z,20.8
